createdAt,value
2022-08-14T00:00:00.264Z,99.90
2022-08-14T00:04:01.951Z,99.90
2022-08-14T00:08:45.098Z,99.90
2022-08-14T00:12:56.813Z,99.90
2022-08-14T00:16:58.976Z,99.90
2022-08-14T00:21:03.468Z,99.90
2022-08-14T00:25:07.291Z,99.90
2022-08-14T00:29:09.027Z,99.90
2022-08-14T00:33:15.151Z,99.90
2022-08-14T00:37:17.703Z,99.90
2022-08-14T00:41:19.458Z,99.90
2022-08-14T00:45:22.165Z,99.90
2022-08-14T00:49:23.891Z,99.90
2022-08-14T00:53:26.391Z,99.90
2022-08-14T00:57:34.002Z,99.90
2022-08-14T01:01:38.964Z,99.90
2022-08-14T01:05:51.601Z,99.90
2022-08-14T01:09:58.683Z,99.90
2022-08-14T01:14:01.578Z,99.90
2022-08-14T01:18:40.216Z,99.90
2022-08-14T01:22:42.984Z,99.90
2022-08-14T01:26:50.701Z,99.90
2022-08-14T01:30:57.524Z,99.90
2022-08-14T01:35:17.957Z,99.90
2022-08-14T01:39:21.219Z,99.90
2022-08-14T01:43:27.134Z,99.90
2022-08-14T01:47:33.568Z,99.90
2022-08-14T01:51:43.549Z,99.90
2022-08-14T01:55:45.310Z,99.90
2022-08-14T01:59:50.170Z,99.90
2022-08-14T02:03:53.451Z,99.90
2022-08-14T02:08:09.554Z,99.90
2022-08-14T02:12:26.609Z,99.90
2022-08-14T02:16:38.848Z,99.90
2022-08-14T02:20:40.563Z,99.90
2022-08-14T02:24:45.128Z,99.90
2022-08-14T02:29:00.579Z,99.90
2022-08-14T02:33:05.727Z,99.90
2022-08-14T02:37:17.979Z,99.90
2022-08-14T02:41:19.976Z,99.90
2022-08-14T02:45:22.162Z,99.90
2022-08-14T02:49:33.110Z,99.90
2022-08-14T02:53:39.710Z,99.90
2022-08-14T02:57:44.099Z,99.90
2022-08-14T03:01:51.219Z,99.90
2022-08-14T03:05:56.704Z,99.90
2022-08-14T03:10:27.588Z,99.90
2022-08-14T03:14:25.624Z,99.90
2022-08-14T03:18:31.182Z,99.90
2022-08-14T03:22:34.674Z,99.90
2022-08-14T03:26:38.087Z,99.90
2022-08-14T03:30:41.619Z,99.90
2022-08-14T03:34:48.444Z,99.90
2022-08-14T03:39:15.691Z,99.90
2022-08-14T03:43:21.207Z,99.90
2022-08-14T03:47:23.264Z,99.90
2022-08-14T03:51:45.559Z,99.90
2022-08-14T03:55:48.835Z,99.90
2022-08-14T03:59:54.171Z,99.90
2022-08-14T04:04:06.276Z,99.90
2022-08-14T04:08:28.956Z,99.90
2022-08-14T04:12:31.956Z,99.90
2022-08-14T04:16:34.354Z,99.90
2022-08-14T04:20:40.762Z,99.90
2022-08-14T04:24:53.443Z,99.90
2022-08-14T04:29:06.767Z,99.90
2022-08-14T04:33:20.472Z,99.90
2022-08-14T04:37:45.010Z,99.90
2022-08-14T04:42:09.245Z,99.90
2022-08-14T04:46:57.444Z,99.90
2022-08-14T04:50:53.863Z,99.90
2022-08-14T04:54:56.303Z,99.90
2022-08-14T04:59:02.202Z,99.90
2022-08-14T05:03:07.494Z,99.90
2022-08-14T05:07:09.353Z,99.90
2022-08-14T05:11:13.407Z,99.90
2022-08-14T05:15:15.662Z,99.90
2022-08-14T05:19:27.390Z,99.90
2022-08-14T05:23:33.796Z,99.90
2022-08-14T05:27:36.627Z,99.90
2022-08-14T05:31:40.533Z,99.90
2022-08-14T05:35:44.240Z,99.90
2022-08-14T05:39:48.428Z,99.90
2022-08-14T05:43:51.071Z,99.90
2022-08-14T05:47:53.217Z,99.90
2022-08-14T05:51:55.397Z,99.90
2022-08-14T05:56:00.312Z,99.90
2022-08-14T06:00:01.987Z,99.90
2022-08-14T06:04:04.606Z,99.90
2022-08-14T06:08:36.270Z,99.90
2022-08-14T06:12:56.446Z,99.90
2022-08-14T06:16:58.922Z,99.90
2022-08-14T06:21:02.378Z,99.90
2022-08-14T06:25:04.638Z,99.90
2022-08-14T06:29:07.431Z,99.90
2022-08-14T06:33:09.195Z,99.90
2022-08-14T06:37:10.992Z,99.90
2022-08-14T06:41:13.249Z,99.90
2022-08-14T06:45:26.467Z,99.90
2022-08-14T06:49:30.172Z,99.90
2022-08-14T06:53:32.401Z,99.90
2022-08-14T06:57:42.260Z,99.90
2022-08-14T07:02:02.777Z,99.90
2022-08-14T07:06:11.651Z,99.90
2022-08-14T07:10:24.984Z,99.90
2022-08-14T07:14:27.248Z,99.90
2022-08-14T07:18:31.318Z,99.90
2022-08-14T07:22:49.903Z,99.90
2022-08-14T07:26:54.656Z,99.90
2022-08-14T07:31:04.716Z,99.90
2022-08-14T07:35:07.706Z,99.90
2022-08-14T07:39:12.423Z,99.90
2022-08-14T07:43:15.274Z,99.90
2022-08-14T07:47:18.043Z,99.90
2022-08-14T07:51:20.229Z,99.90
2022-08-14T07:55:22.049Z,99.90
2022-08-14T07:59:40.527Z,99.90
2022-08-14T08:03:49.644Z,99.90
2022-08-14T08:07:55.981Z,99.90
2022-08-14T08:11:58.271Z,99.90
2022-08-14T08:16:00.054Z,99.90
2022-08-14T08:20:02.731Z,99.90
2022-08-14T08:24:04.586Z,99.90
2022-08-14T08:28:31.343Z,99.90
2022-08-14T08:32:43.650Z,99.90
2022-08-14T08:36:46.558Z,99.90
2022-08-14T08:40:50.223Z,99.90
2022-08-14T08:44:55.475Z,99.90
2022-08-14T08:53:06.197Z,99.90
2022-08-14T08:57:12.708Z,99.90
2022-08-14T09:01:29.402Z,99.90
2022-08-14T09:05:34.341Z,99.90
2022-08-14T09:09:53.505Z,98.10
2022-08-14T09:14:00.371Z,93.70
2022-08-14T09:18:02.152Z,93.70
2022-08-14T09:22:35.962Z,90.70
2022-08-14T09:26:28.555Z,86.80
2022-08-14T09:30:33.909Z,83.40
2022-08-14T09:34:47.417Z,77.50
2022-08-14T09:39:06.547Z,78.70
2022-08-14T09:43:43.591Z,82.80
2022-08-14T09:47:54.370Z,76.80
2022-08-14T09:52:05.319Z,81.10
2022-08-14T09:56:30.721Z,76.10
2022-08-14T10:01:01.527Z,77.60
2022-08-14T10:05:03.127Z,71.10
2022-08-14T10:09:06.522Z,74.10
2022-08-14T10:13:25.206Z,72.40
2022-08-14T10:17:33.059Z,73.90
2022-08-14T10:23:11.070Z,72.20
2022-08-14T10:26:09.391Z,72.70
2022-08-14T10:30:22.660Z,68.40
2022-08-14T10:34:40.981Z,66.80
2022-08-14T10:38:42.793Z,67.20
2022-08-14T10:42:52.270Z,70.20
2022-08-14T10:47:39.643Z,68.80
2022-08-14T10:51:26.292Z,67.20
2022-08-14T10:55:45.608Z,65.30
2022-08-14T10:59:59.694Z,67.40
2022-08-14T11:04:02.328Z,68.50
2022-08-14T11:08:09.175Z,70.20
2022-08-14T11:12:39.988Z,68.80
2022-08-14T11:16:40.871Z,67.10
2022-08-14T11:20:54.460Z,65.90
2022-08-14T11:25:04.187Z,66.10
2022-08-14T11:29:10.592Z,71.30
2022-08-14T11:33:12.840Z,67.10
2022-08-14T11:37:19.035Z,69.30
2022-08-14T11:41:28.685Z,71.20
2022-08-14T11:45:34.250Z,72.10
2022-08-14T11:49:40.230Z,71.50
2022-08-14T11:53:43.504Z,70.30
2022-08-14T11:57:59.757Z,78.00
2022-08-14T12:03:00.491Z,74.30
2022-08-14T12:06:55.746Z,72.00
2022-08-14T12:10:58.527Z,68.10
2022-08-14T12:15:00.999Z,70.40
2022-08-14T12:19:02.776Z,71.40
2022-08-14T12:23:07.437Z,70.90
2022-08-14T12:27:13.102Z,71.20
2022-08-14T12:31:20.602Z,67.50
2022-08-14T12:35:25.546Z,68.10
2022-08-14T12:39:27.238Z,68.80
2022-08-14T12:43:29.323Z,68.90
2022-08-14T12:47:31.702Z,67.50
2022-08-14T12:51:35.451Z,69.60
2022-08-14T12:56:22.388Z,67.90
2022-08-14T13:00:26.521Z,65.80
2022-08-14T13:04:31.116Z,68.00
2022-08-14T13:08:34.310Z,64.70
2022-08-14T13:12:51.249Z,68.30
2022-08-14T13:17:04.102Z,67.60
2022-08-14T13:21:07.199Z,65.30
2022-08-14T13:25:20.289Z,65.00
2022-08-14T13:29:26.430Z,65.40
2022-08-14T13:33:32.881Z,64.60
2022-08-14T13:37:34.951Z,63.90
2022-08-14T13:41:37.771Z,66.10
2022-08-14T13:46:00.362Z,62.00
2022-08-14T13:50:04.977Z,59.70
2022-08-14T13:54:10.483Z,61.00
2022-08-14T13:58:34.007Z,60.20
2022-08-14T14:02:47.741Z,63.10
2022-08-14T14:06:51.933Z,61.80
2022-08-14T14:10:55.843Z,62.10
2022-08-14T14:15:05.149Z,63.50
2022-08-14T14:19:09.687Z,62.20
2022-08-14T14:23:17.590Z,62.50
2022-08-14T14:31:43.023Z,63.10
2022-08-14T14:35:45.810Z,62.00
2022-08-14T14:40:54.819Z,62.30
2022-08-14T14:44:15.787Z,62.90
2022-08-14T14:48:19.495Z,63.30
2022-08-14T14:52:27.203Z,62.50
2022-08-14T14:56:48.378Z,61.90
2022-08-14T15:00:59.879Z,63.60
2022-08-14T15:05:02.036Z,64.20
2022-08-14T15:09:05.004Z,64.50
2022-08-14T15:13:10.788Z,65.80
2022-08-14T15:17:12.832Z,65.80
2022-08-14T15:21:14.943Z,67.30
2022-08-14T15:25:18.572Z,68.20
2022-08-14T15:29:43.354Z,68.80
2022-08-14T15:34:40.936Z,70.70
2022-08-14T15:38:25.982Z,70.50
2022-08-14T15:42:32.414Z,68.40
2022-08-14T15:46:43.059Z,69.90
2022-08-14T15:50:47.436Z,70.30
2022-08-14T15:54:52.607Z,71.20
2022-08-14T15:58:54.785Z,71.60
2022-08-14T16:02:56.533Z,72.50
2022-08-14T16:06:58.245Z,69.00
2022-08-14T16:11:03.165Z,70.30
2022-08-14T16:15:05.375Z,74.50
2022-08-14T16:19:11.776Z,70.50
2022-08-14T16:23:18.196Z,70.50
2022-08-14T16:27:23.619Z,70.20
2022-08-14T16:31:43.833Z,69.40
2022-08-14T16:35:59.476Z,70.50
2022-08-14T16:40:02.656Z,70.30
2022-08-14T16:44:21.577Z,71.30
2022-08-14T16:48:54.727Z,70.10
2022-08-14T16:52:55.822Z,67.00
2022-08-14T16:57:23.550Z,68.40
2022-08-14T17:01:25.342Z,66.40
2022-08-14T17:05:29.361Z,66.90
2022-08-14T17:09:43.531Z,66.50
2022-08-14T17:13:58.008Z,66.10
2022-08-14T17:18:02.841Z,66.00
2022-08-14T17:22:09.148Z,67.40
2022-08-14T17:26:33.841Z,67.60
2022-08-14T17:30:56.738Z,68.70
2022-08-14T17:35:01.624Z,69.40
2022-08-14T17:39:17.122Z,73.30
2022-08-14T17:43:19.808Z,70.00
2022-08-14T17:47:26.703Z,71.70
2022-08-14T17:51:30.241Z,72.30
2022-08-14T17:56:02.171Z,72.70
2022-08-14T17:59:55.841Z,73.90
2022-08-14T18:04:05.621Z,73.00
2022-08-14T18:08:33.942Z,75.00
2022-08-14T18:12:43.929Z,76.70
2022-08-14T18:16:46.683Z,77.60
2022-08-14T18:21:24.222Z,79.20
2022-08-14T18:25:19.264Z,81.90
2022-08-14T18:29:25.215Z,84.10
2022-08-14T18:33:35.394Z,86.50
2022-08-14T18:37:55.978Z,90.30
2022-08-14T18:42:23.579Z,92.30
2022-08-14T18:46:59.684Z,94.10
2022-08-14T18:50:48.725Z,95.40
2022-08-14T18:54:59.618Z,96.10
2022-08-14T18:59:01.675Z,96.40
2022-08-14T19:03:06.916Z,98.30
2022-08-14T19:07:18.665Z,99.90
2022-08-14T19:11:34.193Z,99.90
2022-08-14T19:15:38.394Z,99.90
2022-08-14T19:19:40.189Z,99.90
2022-08-14T19:24:27.812Z,99.90
2022-08-14T19:28:43.467Z,99.90
2022-08-14T19:32:45.211Z,99.90
2022-08-14T19:37:05.964Z,99.90
2022-08-14T19:41:16.625Z,99.90
2022-08-14T19:45:18.670Z,99.90
2022-08-14T19:50:09.007Z,99.90
2022-08-14T19:53:58.935Z,99.90
2022-08-14T19:58:01.389Z,99.90
2022-08-14T20:02:03.622Z,99.90
2022-08-14T20:06:08.795Z,99.90
2022-08-14T20:11:12.482Z,99.90
2022-08-14T20:15:04.326Z,99.90
2022-08-14T20:19:17.426Z,99.90
2022-08-14T20:23:20.094Z,99.90
2022-08-14T20:27:33.702Z,99.90
2022-08-14T20:31:38.429Z,99.90
2022-08-14T20:35:52.061Z,99.90
2022-08-14T20:39:55.799Z,99.90
2022-08-14T20:44:20.808Z,99.90
2022-08-14T20:48:51.386Z,99.90
2022-08-14T20:52:49.232Z,99.90
2022-08-14T20:56:53.374Z,99.90
2022-08-14T21:01:00.489Z,99.90
2022-08-14T21:05:16.812Z,99.90
2022-08-14T21:10:03.181Z,99.90
2022-08-14T21:14:19.986Z,99.90
2022-08-14T21:18:13.270Z,99.90
2022-08-14T21:22:18.591Z,99.90
2022-08-14T21:26:50.484Z,99.90
2022-08-14T21:30:51.756Z,99.90
2022-08-14T21:34:55.207Z,99.90
2022-08-14T21:38:59.008Z,99.90
2022-08-14T21:43:01.031Z,99.90
2022-08-14T21:47:03.797Z,99.90
2022-08-14T21:51:55.305Z,99.90
2022-08-14T21:55:27.545Z,99.90
2022-08-14T21:59:34.354Z,99.90
2022-08-14T22:03:39.607Z,99.90
2022-08-14T22:07:47.301Z,99.90
2022-08-14T22:11:56.753Z,99.90
2022-08-14T22:15:59.560Z,99.90
2022-08-14T22:20:06.964Z,99.90
2022-08-14T22:24:10.761Z,99.90
2022-08-14T22:28:27.503Z,99.90
2022-08-14T22:32:57.620Z,99.90
2022-08-14T22:36:57.007Z,99.90
2022-08-14T22:41:25.551Z,99.90
2022-08-14T22:45:20.421Z,99.90
2022-08-14T22:50:28.736Z,99.90
2022-08-14T22:53:52.317Z,99.90
2022-08-14T22:57:54.325Z,99.90
2022-08-14T23:02:05.043Z,99.90
2022-08-14T23:07:02.808Z,99.90
2022-08-14T23:10:35.922Z,99.90
2022-08-14T23:14:38.772Z,99.90
2022-08-14T23:18:43.229Z,99.90
2022-08-14T23:22:46.577Z,99.90
2022-08-14T23:26:53.741Z,99.90
2022-08-14T23:30:55.655Z,99.90
2022-08-14T23:34:58.503Z,99.90
2022-08-14T23:39:00.497Z,99.90
2022-08-14T23:43:08.002Z,99.90
2022-08-14T23:47:26.152Z,99.90
2022-08-14T23:51:28.883Z,99.90
2022-08-14T23:55:42.030Z,99.90
2022-08-14T23:59:45.139Z,99.90
